sensor_id;sensor_type;location;lat;lon;timestamp;pressure;altitude;pressure_sealevel;temperature;humidity
42945;BME280;28584;42.636;23.294;2022-09-17T00:00:20;117111.13;;;15.83;100.00
42945;BME280;28584;42.636;23.294;2022-09-17T00:02:53;116103.03;;;15.81;100.00
42945;BME280;28584;42.636;23.294;2022-09-17T00:05:21;116904.56;;;15.75;100.00
42945;BME280;28584;42.636;23.294;2022-09-17T00:07:49;120261.84;;;15.85;100.00
42945;BME280;28584;42.636;23.294;2022-09-17T00:10:15;119902.63;;;15.90;100.00
42945;BME280;28584;42.636;23.294;2022-09-17T00:12:40;121761.34;;;15.91;100.00
42945;BME280;28584;42.636;23.294;2022-09-17T00:15:06;127741.66;;;15.99;100.00
42945;BME280;28584;42.636;23.294;2022-09-17T00:17:32;136682.34;;;16.04;100.00
42945;BME280;28584;42.636;23.294;2022-09-17T00:19:57;136079.00;;;16.08;100.00
42945;BME280;28584;42.636;23.294;2022-09-17T00:22:23;136982.47;;;16.08;100.00
42945;BME280;28584;42.636;23.294;2022-09-17T00:24:48;144895.75;;;16.06;100.00
42945;BME280;28584;42.636;23.294;2022-09-17T00:27:13;148847.59;;;16.13;100.00
42945;BME280;28584;42.636;23.294;2022-09-17T00:29:39;145729.94;;;16.14;100.00
42945;BME280;28584;42.636;23.294;2022-09-17T00:32:04;149643.44;;;16.10;100.00
42945;BME280;28584;42.636;23.294;2022-09-17T00:34:30;149283.28;;;16.12;100.00
42945;BME280;28584;42.636;23.294;2022-09-17T00:36:55;146346.31;;;16.18;100.00
42945;BME280;28584;42.636;23.294;2022-09-17T00:39:20;144665.25;;;16.13;100.00
42945;BME280;28584;42.636;23.294;2022-09-17T00:41:46;148550.59;;;16.14;100.00
42945;BME280;28584;42.636;23.294;2022-09-17T00:44:41;146828.19;;;16.19;100.00
42945;BME280;28584;42.636;23.294;2022-09-17T00:47:34;162973.78;;;16.58;100.00
42945;BME280;28584;42.636;23.294;2022-09-17T00:50:05;163043.59;;;16.84;100.00
42945;BME280;28584;42.636;23.294;2022-09-17T00:52:40;163011.34;;;16.72;100.00
42945;BME280;28584;42.636;23.294;2022-09-17T00:55:38;162944.25;;;16.47;100.00
42945;BME280;28584;42.636;23.294;2022-09-17T00:58:08;162924.06;;;16.39;100.00
42945;BME280;28584;42.636;23.294;2022-09-17T01:00:34;162914.69;;;16.35;100.00
42945;BME280;28584;42.636;23.294;2022-09-17T01:03:00;162909.31;;;16.33;100.00
42945;BME280;28584;42.636;23.294;2022-09-17T01:22:35;114684.97;;;15.99;100.00
42945;BME280;28584;42.636;23.294;2022-09-17T01:47:23;109173.53;;;16.12;100.00
42945;BME280;28584;42.636;23.294;2022-09-17T01:49:53;116562.50;;;16.18;100.00
42945;BME280;28584;42.636;23.294;2022-09-17T01:52:22;163048.91;;;16.86;100.00
42945;BME280;28584;42.636;23.294;2022-09-17T01:54:52;163231.56;;;17.54;100.00
42945;BME280;28584;42.636;23.294;2022-09-17T02:00:37;163648.16;;;19.09;100.00
42945;BME280;28584;42.636;23.294;2022-09-17T02:03:16;163114.72;;;17.10;100.00
42945;BME280;28584;42.636;23.294;2022-09-17T02:05:59;160220.53;;;16.53;100.00
42945;BME280;28584;42.636;23.294;2022-09-17T02:08:33;121283.78;;;16.38;100.00
42945;BME280;28584;42.636;23.294;2022-09-17T02:11:07;106359.56;;;16.21;100.00
42945;BME280;28584;42.636;23.294;2022-09-17T02:16:31;99080.31;;;16.22;100.00
42945;BME280;28584;42.636;23.294;2022-09-17T02:19:23;124391.88;;;16.60;100.00
42945;BME280;28584;42.636;23.294;2022-09-17T02:27:28;163696.59;;;19.27;100.00
42945;BME280;28584;42.636;23.294;2022-09-17T02:29:59;163769.19;;;19.54;100.00
42945;BME280;28584;42.636;23.294;2022-09-17T02:32:24;163837.81;;;19.80;100.00
42945;BME280;28584;42.636;23.294;2022-09-17T02:34:50;163901.00;;;20.03;100.00
42945;BME280;28584;42.636;23.294;2022-09-17T02:37:15;163930.63;;;20.14;100.00
42945;BME280;28584;42.636;23.294;2022-09-17T02:39:41;163973.72;;;20.30;100.00
42945;BME280;28584;42.636;23.294;2022-09-17T02:50:37;163046.25;;;16.85;100.00
42945;BME280;28584;42.636;23.294;2022-09-17T02:59:15;105428.03;;;16.34;100.00
42945;BME280;28584;42.636;23.294;2022-09-17T03:01:51;100282.47;;;16.28;100.00
42945;BME280;28584;42.636;23.294;2022-09-17T03:04:20;96365.56;;;16.20;100.00
42945;BME280;28584;42.636;23.294;2022-09-17T03:06:47;93219.06;;;16.17;100.00
42945;BME280;28584;42.636;23.294;2022-09-17T03:09:14;97185.00;;;16.22;100.00
42945;BME280;28584;42.636;23.294;2022-09-17T03:11:40;96462.06;;;16.20;100.00
42945;BME280;28584;42.636;23.294;2022-09-17T03:14:06;93532.94;;;15.97;100.00
42945;BME280;28584;42.636;23.294;2022-09-17T03:16:31;89824.72;;;15.84;100.00
42945;BME280;28584;42.636;23.294;2022-09-17T03:18:57;84673.97;;;15.64;100.00
42945;BME280;28584;42.636;23.294;2022-09-17T03:21:22;79838.47;;;15.33;100.00
42945;BME280;28584;42.636;23.294;2022-09-17T03:23:47;77493.63;;;15.20;100.00
42945;BME280;28584;42.636;23.294;2022-09-17T03:26:13;76157.06;;;15.15;100.00
42945;BME280;28584;42.636;23.294;2022-09-17T03:28:38;75421.38;;;15.22;100.00
42945;BME280;28584;42.636;23.294;2022-09-17T03:31:04;75049.25;;;15.27;100.00
42945;BME280;28584;42.636;23.294;2022-09-17T03:33:30;74981.75;;;15.25;100.00
42945;BME280;28584;42.636;23.294;2022-09-17T03:35:56;75077.25;;;15.32;100.00
42945;BME280;28584;42.636;23.294;2022-09-17T03:38:21;75257.06;;;15.42;100.00
42945;BME280;28584;42.636;23.294;2022-09-17T03:41:02;75640.91;;;15.47;100.00
42945;BME280;28584;42.636;23.294;2022-09-17T03:43:28;76215.81;;;15.58;100.00
42945;BME280;28584;42.636;23.294;2022-09-17T03:45:54;77483.91;;;15.78;100.00
42945;BME280;28584;42.636;23.294;2022-09-17T03:48:20;81740.00;;;15.86;100.00
42945;BME280;28584;42.636;23.294;2022-09-17T03:50:45;88544.25;;;16.00;100.00
42945;BME280;28584;42.636;23.294;2022-09-17T03:53:11;95479.38;;;15.98;100.00
42945;BME280;28584;42.636;23.294;2022-09-17T03:55:37;99264.63;;;16.00;100.00
42945;BME280;28584;42.636;23.294;2022-09-17T03:58:03;97476.63;;;15.99;100.00
42945;BME280;28584;42.636;23.294;2022-09-17T04:00:29;98990.38;;;16.01;100.00
42945;BME280;28584;42.636;23.294;2022-09-17T04:02:54;101115.41;;;15.99;100.00
42945;BME280;28584;42.636;23.294;2022-09-17T04:05:20;99436.81;;;16.07;100.00
42945;BME280;28584;42.636;23.294;2022-09-17T04:07:45;110381.88;;;16.16;100.00
42945;BME280;28584;42.636;23.294;2022-09-17T04:10:11;123252.06;;;16.28;100.00
42945;BME280;28584;42.636;23.294;2022-09-17T04:12:36;128625.53;;;16.33;100.00
42945;BME280;28584;42.636;23.294;2022-09-17T04:15:02;127465.41;;;16.35;100.00
42945;BME280;28584;42.636;23.294;2022-09-17T04:17:27;120202.66;;;16.32;100.00
42945;BME280;28584;42.636;23.294;2022-09-17T04:19:53;119688.81;;;16.39;100.00
42945;BME280;28584;42.636;23.294;2022-09-17T04:22:19;115115.66;;;16.33;100.00
42945;BME280;28584;42.636;23.294;2022-09-17T04:24:45;112204.66;;;16.25;100.00
42945;BME280;28584;42.636;23.294;2022-09-17T04:27:10;102837.63;;;16.25;100.00
42945;BME280;28584;42.636;23.294;2022-09-17T04:29:35;101827.13;;;16.12;100.00
42945;BME280;28584;42.636;23.294;2022-09-17T04:32:01;100684.03;;;15.99;100.00
42945;BME280;28584;42.636;23.294;2022-09-17T04:34:27;93720.22;;;15.97;100.00
42945;BME280;28584;42.636;23.294;2022-09-17T04:36:53;87607.97;;;15.87;100.00
42945;BME280;28584;42.636;23.294;2022-09-17T04:39:18;83268.00;;;15.94;100.00
42945;BME280;28584;42.636;23.294;2022-09-17T04:41:44;79620.88;;;16.02;100.00
42945;BME280;28584;42.636;23.294;2022-09-17T04:44:10;77566.81;;;16.09;100.00
42945;BME280;28584;42.636;23.294;2022-09-17T04:46:35;76177.75;;;16.18;100.00
42945;BME280;28584;42.636;23.294;2022-09-17T04:49:00;75613.81;;;16.28;100.00
42945;BME280;28584;42.636;23.294;2022-09-17T04:51:26;76377.88;;;16.45;100.00
42945;BME280;28584;42.636;23.294;2022-09-17T04:53:51;76787.91;;;16.51;100.00
42945;BME280;28584;42.636;23.294;2022-09-17T04:56:17;78909.97;;;16.62;100.00
42945;BME280;28584;42.636;23.294;2022-09-17T04:58:42;83164.91;;;16.68;100.00
42945;BME280;28584;42.636;23.294;2022-09-17T05:01:07;88011.41;;;16.72;100.00
42945;BME280;28584;42.636;23.294;2022-09-17T05:03:33;87731.16;;;16.68;100.00
42945;BME280;28584;42.636;23.294;2022-09-17T05:05:58;87253.38;;;16.79;100.00
42945;BME280;28584;42.636;23.294;2022-09-17T05:08:24;86650.53;;;16.77;100.00
42945;BME280;28584;42.636;23.294;2022-09-17T05:10:50;85117.94;;;16.75;100.00
42945;BME280;28584;42.636;23.294;2022-09-17T05:13:15;85375.13;;;16.74;100.00
42945;BME280;28584;42.636;23.294;2022-09-17T05:15:41;84890.31;;;16.71;100.00
42945;BME280;28584;42.636;23.294;2022-09-17T05:18:06;84602.19;;;16.70;100.00
42945;BME280;28584;42.636;23.294;2022-09-17T05:20:32;86759.63;;;16.68;100.00
42945;BME280;28584;42.636;23.294;2022-09-17T05:22:57;87896.13;;;16.78;100.00
42945;BME280;28584;42.636;23.294;2022-09-17T05:25:23;90594.53;;;16.85;100.00
42945;BME280;28584;42.636;23.294;2022-09-17T05:27:49;94395.09;;;16.93;100.00
42945;BME280;28584;42.636;23.294;2022-09-17T05:30:15;100871.88;;;17.02;100.00
42945;BME280;28584;42.636;23.294;2022-09-17T05:32:40;110956.53;;;17.06;100.00
42945;BME280;28584;42.636;23.294;2022-09-17T05:35:06;123246.16;;;17.11;100.00
42945;BME280;28584;42.636;23.294;2022-09-17T05:37:32;136800.81;;;17.19;100.00
42945;BME280;28584;42.636;23.294;2022-09-17T05:39:58;147450.09;;;17.29;100.00
42945;BME280;28584;42.636;23.294;2022-09-17T05:42:23;157664.78;;;17.39;100.00
42945;BME280;28584;42.636;23.294;2022-09-17T05:44:49;163236.97;;;17.56;100.00
42945;BME280;28584;42.636;23.294;2022-09-17T05:47:14;163293.38;;;17.77;100.00
42945;BME280;28584;42.636;23.294;2022-09-17T05:49:40;163341.72;;;17.95;100.00
42945;BME280;28584;42.636;23.294;2022-09-17T05:52:05;163384.66;;;18.11;100.00
42945;BME280;28584;42.636;23.294;2022-09-17T05:54:31;163399.50;;;18.16;100.00
42945;BME280;28584;42.636;23.294;2022-09-17T05:56:56;163406.19;;;18.19;100.00
42945;BME280;28584;42.636;23.294;2022-09-17T05:59:22;163408.88;;;18.20;100.00
42945;BME280;28584;42.636;23.294;2022-09-17T06:01:47;163443.81;;;18.33;100.00
42945;BME280;28584;42.636;23.294;2022-09-17T06:04:13;163481.47;;;18.47;100.00
42945;BME280;28584;42.636;23.294;2022-09-17T06:06:39;163521.78;;;18.62;100.00
42945;BME280;28584;42.636;23.294;2022-09-17T06:09:09;163568.84;;;18.79;100.00
42945;BME280;28584;42.636;23.294;2022-09-17T06:11:38;163559.41;;;18.76;100.00
42945;BME280;28584;42.636;23.294;2022-09-17T06:14:03;163562.13;;;18.77;100.00
42945;BME280;28584;42.636;23.294;2022-09-17T06:16:29;163508.38;;;18.57;100.00
42945;BME280;28584;42.636;23.294;2022-09-17T06:18:54;163439.78;;;18.31;100.00
42945;BME280;28584;42.636;23.294;2022-09-17T06:21:20;163390.06;;;18.13;100.00
42945;BME280;28584;42.636;23.294;2022-09-17T06:23:47;163349.78;;;17.98;100.00
42945;BME280;28584;42.636;23.294;2022-09-17T06:26:13;163305.41;;;17.81;100.00
42945;BME280;28584;42.636;23.294;2022-09-17T06:28:38;163210.09;;;17.46;100.00
42945;BME280;28584;42.636;23.294;2022-09-17T06:31:05;163122.78;;;17.13;100.00
42945;BME280;28584;42.636;23.294;2022-09-17T06:33:31;131388.75;;;16.87;100.00
42945;BME280;28584;42.636;23.294;2022-09-17T06:36:03;120156.25;;;16.80;100.00
42945;BME280;28584;42.636;23.294;2022-09-17T06:38:31;116240.16;;;16.59;100.00
42945;BME280;28584;42.636;23.294;2022-09-17T06:40:57;110366.34;;;16.57;100.00
42945;BME280;28584;42.636;23.294;2022-09-17T06:43:23;106439.06;;;16.54;100.00
42945;BME280;28584;42.636;23.294;2022-09-17T06:46:00;102413.03;;;16.64;100.00
42945;BME280;28584;42.636;23.294;2022-09-17T06:48:27;99068.19;;;16.77;100.00
42945;BME280;28584;42.636;23.294;2022-09-17T06:50:53;99441.81;;;16.94;100.00
42945;BME280;28584;42.636;23.294;2022-09-17T06:53:20;106054.38;;;17.04;100.00
42945;BME280;28584;42.636;23.294;2022-09-17T06:55:46;109418.50;;;17.28;100.00
42945;BME280;28584;42.636;23.294;2022-09-17T06:58:11;128477.66;;;17.45;100.00
42945;BME280;28584;42.636;23.294;2022-09-17T07:00:36;160646.97;;;17.73;100.00
42945;BME280;28584;42.636;23.294;2022-09-17T07:03:02;163328.25;;;17.90;100.00
42945;BME280;28584;42.636;23.294;2022-09-17T07:05:28;162005.00;;;18.40;100.00
42945;BME280;28584;42.636;23.294;2022-09-17T07:07:54;163576.91;;;18.82;100.00
42945;BME280;28584;42.636;23.294;2022-09-17T07:10:20;163672.31;;;19.18;100.00
42945;BME280;28584;42.636;23.294;2022-09-17T07:12:47;163825.69;;;19.75;100.00
42945;BME280;28584;42.636;23.294;2022-09-17T07:15:13;164104.22;;;20.79;100.00
42945;BME280;28584;42.636;23.294;2022-09-17T07:17:40;164383.03;;;21.83;100.00
42945;BME280;28584;42.636;23.294;2022-09-17T07:20:07;164570.28;;;22.52;100.00
42945;BME280;28584;42.636;23.294;2022-09-17T07:22:34;164633.66;;;22.76;100.00
42945;BME280;28584;42.636;23.294;2022-09-17T07:25:00;164603.97;;;22.65;100.00
42945;BME280;28584;42.636;23.294;2022-09-17T07:27:27;164601.28;;;22.64;100.00
42945;BME280;28584;42.636;23.294;2022-09-17T07:29:53;164603.97;;;22.65;100.00
42945;BME280;28584;42.636;23.294;2022-09-17T07:32:18;164563.56;;;22.50;100.00
42945;BME280;28584;42.636;23.294;2022-09-17T07:34:43;164671.41;;;22.90;100.00
42945;BME280;28584;42.636;23.294;2022-09-17T07:37:09;164784.66;;;23.32;100.00
42945;BME280;28584;42.636;23.294;2022-09-17T07:39:34;164911.38;;;23.79;97.80
42945;BME280;28584;42.636;23.294;2022-09-17T07:42:00;165098.91;;;24.49;90.85
42945;BME280;28584;42.636;23.294;2022-09-17T07:44:28;165178.56;;;24.78;86.46
42945;BME280;28584;42.636;23.294;2022-09-17T07:46:53;165111.06;;;24.53;84.33
42945;BME280;28584;42.636;23.294;2022-09-17T07:49:18;165128.59;;;24.60;88.17
42945;BME280;28584;42.636;23.294;2022-09-17T07:51:44;165409.41;;;25.64;86.04
42945;BME280;28584;42.636;23.294;2022-09-17T07:54:09;165425.63;;;25.70;73.42
42945;BME280;28584;42.636;23.294;2022-09-17T07:56:35;165259.56;;;25.08;76.38
42945;BME280;28584;42.636;23.294;2022-09-17T07:59:01;165248.78;;;25.04;84.80
42945;BME280;28584;42.636;23.294;2022-09-17T08:01:26;165204.19;;;24.88;85.00
42945;BME280;28584;42.636;23.294;2022-09-17T08:03:53;165192.03;;;24.83;82.77
42945;BME280;28584;42.636;23.294;2022-09-17T08:06:21;165124.53;;;24.58;85.70
42945;BME280;28584;42.636;23.294;2022-09-17T08:08:47;165086.78;;;24.44;92.22
42945;BME280;28584;42.636;23.294;2022-09-17T08:11:15;165016.66;;;24.18;92.07
42945;BME280;28584;42.636;23.294;2022-09-17T08:13:41;165034.16;;;24.25;95.48
42945;BME280;28584;42.636;23.294;2022-09-17T08:16:09;165119.19;;;24.56;86.86
42945;BME280;28584;42.636;23.294;2022-09-17T08:18:37;165151.59;;;24.68;86.70
42945;BME280;28584;42.636;23.294;2022-09-17T08:21:04;165243.34;;;25.02;88.38
42945;BME280;28584;42.636;23.294;2022-09-17T08:23:30;165275.72;;;25.14;83.50
42945;BME280;28584;42.636;23.294;2022-09-17T08:25:58;165258.19;;;25.08;89.05
42945;BME280;28584;42.636;23.294;2022-09-17T08:28:26;165320.34;;;25.31;87.26
42945;BME280;28584;42.636;23.294;2022-09-17T08:30:52;165328.47;;;25.34;84.24
42945;BME280;28584;42.636;23.294;2022-09-17T08:33:19;165452.63;;;25.80;81.64
42945;BME280;28584;42.636;23.294;2022-09-17T08:35:52;165351.34;;;25.42;81.72
42945;BME280;28584;42.636;23.294;2022-09-17T08:38:17;165302.72;;;25.24;81.12
42945;BME280;28584;42.636;23.294;2022-09-17T08:41:17;165143.47;;;24.65;82.75
42945;BME280;28584;42.636;23.294;2022-09-17T08:46:49;165116.44;;;24.55;84.42
42945;BME280;28584;42.636;23.294;2022-09-17T08:52:08;165186.69;;;24.81;76.20
42945;BME280;28584;42.636;23.294;2022-09-17T09:06:54;164391.13;;;21.86;100.00
42945;BME280;28584;42.636;23.294;2022-09-17T09:09:25;164108.25;;;20.80;100.00
42945;BME280;28584;42.636;23.294;2022-09-17T09:12:00;163992.53;;;20.37;100.00
42945;BME280;28584;42.636;23.294;2022-09-17T09:14:31;163828.34;;;19.76;100.00
42945;BME280;28584;42.636;23.294;2022-09-17T09:17:04;163758.44;;;19.50;100.00
42945;BME280;28584;42.636;23.294;2022-09-17T09:19:40;163654.84;;;19.12;100.00
42945;BME280;28584;42.636;23.294;2022-09-17T09:22:29;163575.56;;;18.82;100.00
42945;BME280;28584;42.636;23.294;2022-09-17T09:25:28;159844.25;;;18.51;100.00
42945;BME280;28584;42.636;23.294;2022-09-17T09:28:35;127843.28;;;18.59;100.00
42945;BME280;28584;42.636;23.294;2022-09-17T09:33:40;108678.78;;;18.55;100.00
42945;BME280;28584;42.636;23.294;2022-09-17T09:36:11;102773.75;;;18.57;100.00
42945;BME280;28584;42.636;23.294;2022-09-17T09:39:17;103390.53;;;18.44;100.00
42945;BME280;28584;42.636;23.294;2022-09-17T09:41:49;102106.91;;;18.34;100.00
42945;BME280;28584;42.636;23.294;2022-09-17T09:44:16;95335.78;;;18.08;100.00
42945;BME280;28584;42.636;23.294;2022-09-17T09:50:19;80663.63;;;17.54;100.00
42945;BME280;28584;42.636;23.294;2022-09-17T09:58:37;75549.63;;;17.17;100.00
42945;BME280;28584;42.636;23.294;2022-09-17T10:01:13;74793.84;;;17.32;100.00
42945;BME280;28584;42.636;23.294;2022-09-17T10:03:40;74573.91;;;17.34;100.00
42945;BME280;28584;42.636;23.294;2022-09-17T10:06:08;74099.13;;;17.50;100.00
42945;BME280;28584;42.636;23.294;2022-09-17T10:08:37;73835.72;;;17.57;100.00
42945;BME280;28584;42.636;23.294;2022-09-17T10:13:38;73624.94;;;17.46;100.00
42945;BME280;28584;42.636;23.294;2022-09-17T10:16:24;73481.81;;;17.36;100.00
42945;BME280;28584;42.636;23.294;2022-09-17T10:19:11;73540.44;;;17.23;100.00
42945;BME280;28584;42.636;23.294;2022-09-17T10:21:40;73580.00;;;17.13;100.00
42945;BME280;28584;42.636;23.294;2022-09-17T10:24:32;73714.16;;;16.99;100.00
42945;BME280;28584;42.636;23.294;2022-09-17T10:27:09;73703.88;;;16.95;100.00
42945;BME280;28584;42.636;23.294;2022-09-17T10:29:41;73534.56;;;17.14;100.00
42945;BME280;28584;42.636;23.294;2022-09-17T10:32:14;73596.59;;;17.20;100.00
42945;BME280;28584;42.636;23.294;2022-09-17T10:34:42;73760.88;;;17.22;100.00
42945;BME280;28584;42.636;23.294;2022-09-17T10:39:57;74101.78;;;17.54;100.00
42945;BME280;28584;42.636;23.294;2022-09-17T10:42:22;74379.16;;;17.70;100.00
42945;BME280;28584;42.636;23.294;2022-09-17T10:44:56;74548.06;;;17.83;100.00
42945;BME280;28584;42.636;23.294;2022-09-17T10:47:29;76229.09;;;17.62;100.00
42945;BME280;28584;42.636;23.294;2022-09-17T10:52:31;75349.41;;;17.71;100.00
42945;BME280;28584;42.636;23.294;2022-09-17T11:00:28;77353.50;;;18.33;100.00
42945;BME280;28584;42.636;23.294;2022-09-17T11:14:50;80372.22;;;18.00;100.00
42945;BME280;28584;42.636;23.294;2022-09-17T11:36:41;163821.63;;;19.74;100.00
42945;BME280;28584;42.636;23.294;2022-09-17T11:39:13;163790.69;;;19.62;100.00
42945;BME280;28584;42.636;23.294;2022-09-17T11:41:42;163672.31;;;19.18;100.00
42945;BME280;28584;42.636;23.294;2022-09-17T11:44:27;156363.53;;;18.89;100.00
42945;BME280;28584;42.636;23.294;2022-09-17T11:47:33;115464.16;;;18.16;100.00
42945;BME280;28584;42.636;23.294;2022-09-17T11:52:45;91951.28;;;17.55;100.00
42945;BME280;28584;42.636;23.294;2022-09-17T11:55:28;87320.31;;;17.63;100.00
42945;BME280;28584;42.636;23.294;2022-09-17T11:57:59;103487.72;;;17.57;100.00
42945;BME280;28584;42.636;23.294;2022-09-17T12:00:28;113130.88;;;17.60;100.00
42945;BME280;28584;42.636;23.294;2022-09-17T12:03:03;124665.09;;;17.64;100.00
42945;BME280;28584;42.636;23.294;2022-09-17T12:05:42;148064.31;;;17.73;100.00
42945;BME280;28584;42.636;23.294;2022-09-17T12:08:44;163357.84;;;18.01;100.00
42945;BME280;28584;42.636;23.294;2022-09-17T12:11:27;163372.63;;;18.06;100.00
42945;BME280;28584;42.636;23.294;2022-09-17T12:14:02;163406.19;;;18.19;100.00
42945;BME280;28584;42.636;23.294;2022-09-17T12:16:37;163426.31;;;18.26;100.00
42945;BME280;28584;42.636;23.294;2022-09-17T12:24:42;163433.06;;;18.29;100.00
42945;BME280;28584;42.636;23.294;2022-09-17T12:29:54;163341.72;;;17.95;100.00
42945;BME280;28584;42.636;23.294;2022-09-17T12:43:37;163179.16;;;17.34;100.00
42945;BME280;28584;42.636;23.294;2022-09-17T12:46:23;163112.03;;;17.09;100.00
42945;BME280;28584;42.636;23.294;2022-09-17T12:49:03;163059.69;;;16.90;100.00
42945;BME280;28584;42.636;23.294;2022-09-17T12:57:35;161752.63;;;17.04;100.00
42945;BME280;28584;42.636;23.294;2022-09-17T13:00:14;163073.09;;;16.95;100.00
42945;BME280;28584;42.636;23.294;2022-09-17T13:08:39;163038.19;;;16.82;100.00
42945;BME280;28584;42.636;23.294;2022-09-17T13:13:42;163130.84;;;17.16;100.00
42945;BME280;28584;42.636;23.294;2022-09-17T13:16:23;163181.84;;;17.35;100.00
42945;BME280;28584;42.636;23.294;2022-09-17T13:21:33;163137.53;;;17.19;100.00
42945;BME280;28584;42.636;23.294;2022-09-17T13:24:17;163112.03;;;17.09;100.00
42945;BME280;28584;42.636;23.294;2022-09-17T13:26:43;163109.31;;;17.08;100.00
42945;BME280;28584;42.636;23.294;2022-09-17T13:29:10;163040.88;;;16.83;100.00
42945;BME280;28584;42.636;23.294;2022-09-17T13:34:48;163043.59;;;16.84;100.00
42945;BME280;28584;42.636;23.294;2022-09-17T13:36:53;163000.63;;;16.68;100.00
42945;BME280;28584;42.636;23.294;2022-09-17T13:39:38;163022.06;;;16.76;100.00
42945;BME280;28584;42.636;23.294;2022-09-17T13:44:45;159159.22;;;16.66;100.00
42945;BME280;28584;42.636;23.294;2022-09-17T13:47:21;163078.50;;;16.97;100.00
42945;BME280;28584;42.636;23.294;2022-09-17T13:49:57;163134.88;;;17.18;100.00
42945;BME280;28584;42.636;23.294;2022-09-17T13:52:53;163078.50;;;16.97;100.00
42945;BME280;28584;42.636;23.294;2022-09-17T13:57:59;163026.09;;;16.77;100.00
42945;BME280;28584;42.636;23.294;2022-09-17T14:00:52;163035.53;;;16.81;100.00
42945;BME280;28584;42.636;23.294;2022-09-17T14:05:53;163027.47;;;16.78;100.00
42945;BME280;28584;42.636;23.294;2022-09-17T14:19:30;163073.09;;;16.95;100.00
42945;BME280;28584;42.636;23.294;2022-09-17T14:24:36;163043.59;;;16.84;100.00
42945;BME280;28584;42.636;23.294;2022-09-17T14:30:13;163073.09;;;16.95;100.00
42945;BME280;28584;42.636;23.294;2022-09-17T14:40:59;86860.03;;;16.32;100.00
42945;BME280;28584;42.636;23.294;2022-09-17T14:46:02;79162.53;;;16.30;100.00
42945;BME280;28584;42.636;23.294;2022-09-17T14:48:32;77131.28;;;16.29;100.00
42945;BME280;28584;42.636;23.294;2022-09-17T14:53:43;75542.19;;;16.21;100.00
42945;BME280;28584;42.636;23.294;2022-09-17T14:56:10;75096.38;;;16.06;100.00
42945;BME280;28584;42.636;23.294;2022-09-17T14:58:40;74821.81;;;15.96;100.00
42945;BME280;28584;42.636;23.294;2022-09-17T15:01:21;74482.13;;;16.01;100.00
42945;BME280;28584;42.636;23.294;2022-09-17T15:03:47;74296.59;;;15.92;100.00
42945;BME280;28584;42.636;23.294;2022-09-17T15:06:20;74132.88;;;15.93;100.00
42945;BME280;28584;42.636;23.294;2022-09-17T15:08:45;73964.19;;;16.03;100.00
42945;BME280;28584;42.636;23.294;2022-09-17T15:11:11;73921.47;;;16.08;100.00
42945;BME280;28584;42.636;23.294;2022-09-17T15:13:50;73922.66;;;16.09;100.00
42945;BME280;28584;42.636;23.294;2022-09-17T15:16:24;73889.66;;;16.18;100.00
42945;BME280;28584;42.636;23.294;2022-09-17T15:19:00;73931.44;;;16.14;100.00
42945;BME280;28584;42.636;23.294;2022-09-17T15:21:32;74234.38;;;16.04;100.00
42945;BME280;28584;42.636;23.294;2022-09-17T15:26:47;74198.78;;;16.04;100.00
42945;BME280;28584;42.636;23.294;2022-09-17T15:29:14;74155.22;;;16.07;100.00
42945;BME280;28584;42.636;23.294;2022-09-17T15:31:40;74300.75;;;16.05;100.00
42945;BME280;28584;42.636;23.294;2022-09-17T15:34:05;74669.03;;;15.97;100.00
42945;BME280;28584;42.636;23.294;2022-09-17T15:36:34;74550.34;;;15.98;100.00
42945;BME280;28584;42.636;23.294;2022-09-17T15:39:29;74606.38;;;15.95;100.00
42945;BME280;28584;42.636;23.294;2022-09-17T15:41:56;74492.53;;;15.96;100.00
42945;BME280;28584;42.636;23.294;2022-09-17T15:44:22;74394.47;;;16.05;100.00
42945;BME280;28584;42.636;23.294;2022-09-17T15:46:48;74259.91;;;16.07;100.00
42945;BME280;28584;42.636;23.294;2022-09-17T15:49:32;74341.91;;;16.25;100.00
42945;BME280;28584;42.636;23.294;2022-09-17T15:54:50;75730.56;;;16.61;100.00
42945;BME280;28584;42.636;23.294;2022-09-17T15:57:15;85640.03;;;16.80;100.00
42945;BME280;28584;42.636;23.294;2022-09-17T15:59:41;103558.53;;;16.88;100.00
42945;BME280;28584;42.636;23.294;2022-09-17T16:02:24;145439.22;;;17.00;100.00
42945;BME280;28584;42.636;23.294;2022-09-17T16:07:44;163124.09;;;17.14;100.00
42945;BME280;28584;42.636;23.294;2022-09-17T16:10:11;163169.75;;;17.31;100.00
42945;BME280;28584;42.636;23.294;2022-09-17T16:12:37;163184.50;;;17.36;100.00
42945;BME280;28584;42.636;23.294;2022-09-17T16:15:03;163212.78;;;17.47;100.00
42945;BME280;28584;42.636;23.294;2022-09-17T16:20:07;151081.28;;;16.85;100.00
42945;BME280;28584;42.636;23.294;2022-09-17T16:22:33;114668.66;;;16.43;100.00
42945;BME280;28584;42.636;23.294;2022-09-17T16:24:59;97292.03;;;16.47;100.00
42945;BME280;28584;42.636;23.294;2022-09-17T16:27:27;89369.13;;;16.39;100.00
42945;BME280;28584;42.636;23.294;2022-09-17T16:30:01;84055.94;;;16.24;100.00
42945;BME280;28584;42.636;23.294;2022-09-17T16:32:27;79387.88;;;16.17;100.00
42945;BME280;28584;42.636;23.294;2022-09-17T16:34:52;76943.00;;;15.92;100.00
42945;BME280;28584;42.636;23.294;2022-09-17T16:37:18;75409.44;;;15.82;100.00
42945;BME280;28584;42.636;23.294;2022-09-17T16:39:43;74695.94;;;15.69;100.00